Tiempo atmosférico en la estación meteorológica de Llucmajor, Puig d?Escorca, Illes Balears (113 m.)



Fecha
DESCASC
Temp. máxima en grados centígrados (hora)
DESCASC
Temp. mínima en grados centígrados (hora)
DESCASC
Temp. media en grados centígrados
DESCASC
Racha de viento máxima en m/sg (hora)
DESCASC
Velocidad máxima media en intervalos de 10 minutos(hora)
DESCASC
Precipitaciones diarias en mm
DESCASC
Precipitaciones de 00:00 a 06:00 en mm
DESCASC
Precipitaciones de 06:00 a 12:00 en mm
DESCASC
Precipitaciones de 12:00 a 18:00 en mm
DESCASC
Precipitaciones de 18:00 a 24:00 en mm
DESCASC

Gráficas

Temp. máximas Temp. mínimas Temp. medias Precipitaciones Rachas de viento máximas Velocidades máximas media en intervalos de 10 minutos

Datos horarios

Fecha y hora oficial Temperatura (ºC) Velocidad del viento (km/h) Dirección del viento Racha (km/h) Dirección de racha Precipitación (mm) Presión (hPa) Tendencia (hPa) Humedad (%)
2019-06-19 23:00:00 19.3 4 Noroeste 6 Oeste 0 -- -- 89
2019-06-19 22:00:00 20 3 Sudoeste 8 Sur 0 -- -- 86
2019-06-19 21:00:00 21.8 4 Sur 14 Sudoeste 0 -- -- 80
2019-06-19 20:00:00 23.4 10 Sudoeste 19 Sur 0 -- -- 75
2019-06-19 19:00:00 24.6 12 Sudoeste 21 Sudoeste 0 -- -- 70
2019-06-19 18:00:00 26.1 12 Sudoeste 23 Oeste 0 -- -- 65
2019-06-19 17:00:00 26.6 13 Sudoeste 22 Sudoeste 0 -- -- 62
2019-06-19 16:00:00 26.7 13 Sudoeste 23 Sudoeste 0 -- -- 61
2019-06-19 15:00:00 26.1 12 Sudoeste 21 Sudoeste 0 -- -- 67
2019-06-19 14:00:00 26 12 Sudoeste 21 Sudoeste 0 -- -- 62
2019-06-19 13:00:00 25.2 16 Sur 26 Sur 0 -- -- 68
2019-06-19 12:00:00 -- -- -- -- -- -- -- -- --
2019-06-19 11:00:00 24.9 14 Sur 23 Sur 0 -- -- 69
2019-06-19 10:00:00 25.7 9 Sudeste 15 Sudeste 0 -- -- 62
2019-06-19 09:00:00 22.7 9 Este 14 Sudeste 0 -- -- 80
2019-06-19 08:00:00 21.2 8 Este 12 Este 0 -- -- 84
2019-06-19 07:00:00 17.7 7 Este 9 Este 0 -- -- 87
2019-06-19 06:00:00 17.9 5 Sudeste 6 Sudeste 0 -- -- 83
2019-06-19 05:00:00 17.3 5 Nordeste 6 Nordeste 0 -- -- 85
2019-06-19 04:00:00 16.9 7 Nordeste 10 Norte 0 -- -- 87
2019-06-19 03:00:00 16.7 7 Norte 9 Norte 0 -- -- 88
2019-06-19 02:00:00 16.9 7 Nordeste 14 Este 0 -- -- 87
2019-06-19 01:00:00 17.1 8 Nordeste 11 Este 0 -- -- 87
2019-06-19 00:00:00 18.4 8 Este 12 Este 0 -- -- 85
2019-06-18 23:00:00 18.7 6 Este 10 Este 0 -- -- 83
2019-06-18 22:00:00 19.5 8 Este 10 Este 0 -- -- 78
2019-06-18 21:00:00 22.5 8 Este 12 Este 0 -- -- 68
2019-06-18 20:00:00 24.5 7 Sudeste 15 Sur 0 -- -- 61
2019-06-18 19:00:00 26 10 Sur 15 Sudeste 0 -- -- 52
2019-06-18 18:00:00 26.3 10 Sudeste 18 Sur 0 -- -- 50
2019-06-18 17:00:00 26.6 12 Sur 22 Sur 0 -- -- 52
2019-06-18 16:00:00 26.9 12 Sudeste 25 Sudeste 0 -- -- 42
2019-06-18 15:00:00 27.1 14 Sudeste 22 Sur 0 -- -- 36
2019-06-18 14:00:00 26.8 14 Sudeste 23 Sudeste 0 -- -- 40
2019-06-18 13:00:00 27.3 13 Sudeste 22 Sudeste 0 -- -- 40
2019-06-18 12:00:00 27.2 11 Sudeste 20 Sudeste 0 -- -- 40
2019-06-18 11:00:00 26.6 11 Sudeste 18 Sudeste 0 -- -- 37
2019-06-18 10:00:00 27.1 8 Sudeste 13 Este 0 -- -- 32
2019-06-18 09:00:00 26.9 5 Sudoeste 7 Sudoeste 0 -- -- 38
2019-06-18 08:00:00 23.9 2 Norte 7 Norte 0 -- -- 48
2019-06-18 07:00:00 18.4 7 Norte 10 Noroeste 0 -- -- 65
2019-06-18 06:00:00 18 8 Noroeste 12 Noroeste 0 -- -- 69
2019-06-18 05:00:00 17.8 8 Noroeste 11 Noroeste 0 -- -- 78
2019-06-18 04:00:00 17.8 7 Noroeste 9 Noroeste 0 -- -- 76
2019-06-18 03:00:00 17.8 7 Noroeste 11 Noroeste 0 -- -- 79
2019-06-18 02:00:00 17.8 7 Noroeste 11 Norte 0 -- -- 86
2019-06-18 01:00:00 18.1 8 Norte 11 Norte 0 -- -- 85
2019-06-18 00:00:00 18.5 6 Noroeste 9 Noroeste 0 -- -- 80
2019-06-17 23:00:00 18.9 6 Oeste 8 Oeste 0 -- -- 76
2019-06-17 22:00:00 19.9 5 Oeste 10 Oeste 0 -- -- 71
2019-06-17 21:00:00 22.7 7 Sudoeste 13 Sudoeste 0 -- -- 60
2019-06-17 20:00:00 24.6 9 Sudoeste 15 Sur 0 -- -- 54
2019-06-17 19:00:00 25.7 9 Sudoeste 16 Sudoeste 0 -- -- 49
2019-06-17 18:00:00 27.4 10 Sudoeste 19 Sudoeste 0 -- -- 34
2019-06-17 17:00:00 26.2 12 Sudoeste 20 Sudoeste 0 -- -- 53
2019-06-17 16:00:00 25.9 13 Sudoeste 23 Oeste 0 -- -- 54
2019-06-17 15:00:00 26.2 13 Sudoeste 24 Sudoeste 0 -- -- 53
2019-06-17 14:00:00 25.5 16 Sudoeste 23 Sudoeste 0 -- -- 55
2019-06-17 13:00:00 26.2 16 Sudoeste 25 Sudoeste 0 -- -- 57
2019-06-17 12:00:00 25.3 15 Sudoeste 21 Sudoeste 0 -- -- 60
2019-06-17 11:00:00 24.5 13 Sur 18 Sur 0 -- -- 61
2019-06-17 10:00:00 25.3 11 Oeste 16 Oeste 0 -- -- 39
2019-06-17 09:00:00 24.9 5 Sur 9 Sudoeste 0 -- -- 45
2019-06-17 08:00:00 21.7 3 Norte 14 Norte 0 -- -- 74
2019-06-17 07:00:00 16.6 11 Norte 16 Norte 0 -- -- 91
2019-06-17 06:00:00 16.9 8 Norte 13 Norte 0 -- -- 92
2019-06-17 05:00:00 16.8 7 Noroeste 10 Noroeste 0 -- -- 92
2019-06-17 04:00:00 17.2 8 Noroeste 11 Noroeste 0 -- -- 92
2019-06-17 03:00:00 17.4 7 Noroeste 9 Noroeste 0 -- -- 91
2019-06-17 02:00:00 18.2 5 Oeste 10 Oeste 0 -- -- 90
2019-06-17 01:00:00 18.4 6 Sur 12 Sur 0 -- -- 89
2019-06-17 00:00:00 18.1 4 Oeste 8 Noroeste 0 -- -- 88
2019-06-16 23:00:00 18.6 4 Este 10 Sudeste 0 -- -- 85
2019-06-16 22:00:00 19.4 9 Sur 14 Sur 0 -- -- 84
2019-06-16 21:00:00 20 6 Sudeste 18 Sur 0 -- -- 81
2019-06-16 20:00:00 21.2 10 Sur 15 Sur 0 -- -- 74
2019-06-16 19:00:00 22 9 Sudoeste 15 Sur 0 -- -- 70
2019-06-16 18:00:00 23.3 9 Sudoeste 24 Sudeste 0 -- -- 66
2019-06-16 17:00:00 25.6 12 Sudeste 28 Este 0 -- -- 55
2019-06-16 16:00:00 24.4 17 Sudeste 28 Este 0 -- -- 58
2019-06-16 15:00:00 26.8 11 Sur 21 Sur 0 -- -- 47
2019-06-16 14:00:00 27.1 9 Oeste 23 Nordeste 0 -- -- 46
2019-06-16 13:00:00 28.1 14 Este 35 Norte 0 -- -- 37
2019-06-16 12:00:00 26.9 13 Este 28 Nordeste 0 -- -- 45
2019-06-16 11:00:00 25.5 19 Nordeste 33 Nordeste 0 -- -- 47
2019-06-16 10:00:00 24.4 18 Nordeste 43 Nordeste 0 -- -- 52
2019-06-16 09:00:00 22.2 19 Nordeste 36 Nordeste 0 -- -- 62
2019-06-16 08:00:00 20.3 19 Nordeste 34 Nordeste 0 -- -- 73
2019-06-16 07:00:00 16.8 16 Nordeste 26 Nordeste 0 -- -- 87
2019-06-16 06:00:00 16.7 15 Nordeste 26 Nordeste 0 -- -- 87
2019-06-16 05:00:00 16.7 13 Este 28 Nordeste 0 -- -- 86
2019-06-16 04:00:00 17.1 15 Nordeste 27 Nordeste 0 -- -- 84
2019-06-16 03:00:00 17.4 12 Nordeste 29 Nordeste 0 -- -- 83
2019-06-16 02:00:00 18 14 Nordeste 29 Nordeste 0 -- -- 83
2019-06-16 01:00:00 18.3 14 Nordeste 23 Nordeste 0 -- -- 84
2019-06-16 00:00:00 18.9 12 Nordeste 21 Nordeste 0 -- -- 81
2019-06-15 23:00:00 19.7 12 Nordeste 18 Nordeste 0 -- -- 76
2019-06-15 22:00:00 20.3 12 Este 24 Este 0 -- -- 75
2019-06-15 21:00:00 21.6 18 Sudeste 30 Sudeste 0 -- -- 74
2019-06-15 20:00:00 23.3 17 Sudeste 35 Sudeste 0 -- -- 69
2019-06-15 19:00:00 29.2 9 Oeste 20 Oeste 0 -- -- 38
2019-06-15 18:00:00 29.3 11 Oeste 21 Sudoeste 0 -- -- 40
2019-06-15 17:00:00 28 11 Oeste 22 Sudoeste 0 -- -- 49
2019-06-15 16:00:00 24.6 13 Oeste 22 Sudoeste 0 -- -- 69
2019-06-15 15:00:00 24.8 15 Sudoeste 22 Oeste 0 -- -- 68
2019-06-15 14:00:00 24.7 10 Sudoeste 22 Sur 0 -- -- 67
2019-06-15 13:00:00 24.9 13 Sudoeste 26 Sur 0 -- -- 66
2019-06-15 12:00:00 24.9 15 Sudoeste 28 Sudoeste 0 -- -- 64
2019-06-15 11:00:00 24.2 16 Sudoeste 26 Sudoeste 0 -- -- 68
2019-06-15 10:00:00 23.5 12 Sudoeste 30 Oeste 0 -- -- 71
2019-06-15 09:00:00 21 14 Sudoeste 26 Sudoeste 0 -- -- 79
2019-06-15 08:00:00 19.9 12 Sudoeste 27 Sudoeste 0 -- -- 81
2019-06-15 07:00:00 19.3 14 Sudoeste 31 Sur 0 -- -- 82
2019-06-15 06:00:00 19.1 15 Sudoeste 27 Sur 0 -- -- 83
2019-06-15 05:00:00 19 13 Sudoeste 28 Sudoeste 0 -- -- 85
2019-06-15 04:00:00 18.8 11 Sudoeste 21 Sudoeste 0 -- -- 87
2019-06-15 03:00:00 18.8 10 Sudoeste 17 Sur 0 -- -- 86
2019-06-15 02:00:00 18.7 8 Sudoeste 18 Sudoeste 0 -- -- 86
2019-06-15 01:00:00 18.9 8 Sudoeste 16 Sudoeste 0 -- -- 86
2019-06-15 00:00:00 19.2 9 Sudoeste 18 Sudoeste 0 -- -- 84
2019-06-14 23:00:00 19.3 9 Sudoeste 19 Sudoeste 0 -- -- 86
2019-06-14 22:00:00 19.6 12 Sudoeste 19 Sudoeste 0 -- -- 86
2019-06-14 21:00:00 20.5 12 Sudoeste 21 Sudoeste 0 -- -- 83
2019-06-14 20:00:00 21.3 15 Sudoeste 28 Sudoeste 0 -- -- 77
2019-06-14 19:00:00 24.1 12 Sudoeste 23 Sudoeste 0 -- -- 58
2019-06-14 18:00:00 24.1 15 Oeste 26 Oeste 0 -- -- 57
2019-06-14 17:00:00 24.2 18 Oeste 38 Oeste 0 -- -- 55
2019-06-14 16:00:00 23.4 23 Oeste 39 Oeste 0 -- -- 56
2019-06-14 15:00:00 23.2 23 Oeste 48 Oeste 0 -- -- 56
2019-06-14 14:00:00 22.6 28 Oeste 51 Oeste 0 -- -- 61
2019-06-14 13:00:00 21.6 27 Oeste 55 Oeste 0 -- -- 74
2019-06-14 12:00:00 21.7 28 Oeste 57 Oeste 0 -- -- 76
2019-06-14 11:00:00 20.2 30 Oeste 54 Oeste 0 -- -- 85
2019-06-14 10:00:00 19.7 31 Oeste 52 Oeste 0 -- -- 87
2019-06-14 09:00:00 20 22 Oeste 38 Sudoeste 0 -- -- 86
2019-06-14 08:00:00 21.4 16 Oeste 28 Oeste 0 -- -- 84
2019-06-14 07:00:00 20 8 Oeste 16 Oeste 0 -- -- 86
2019-06-14 06:00:00 19 8 Norte 19 Nordeste 0 -- -- 86
2019-06-14 05:00:00 18.9 14 Nordeste 23 Norte 0 -- -- 85
2019-06-14 04:00:00 19.6 13 Nordeste 34 Nordeste 0 -- -- 83
2019-06-14 03:00:00 19.5 14 Nordeste 30 Nordeste 0 -- -- 81
2019-06-14 02:00:00 19.7 18 Nordeste 32 Norte 0 -- -- 81
2019-06-14 01:00:00 19.8 20 Nordeste 39 Nordeste 0 -- -- 81
2019-06-14 00:00:00 20.1 19 Nordeste 36 Nordeste 0 -- -- 80
2019-06-13 23:00:00 20.2 18 Nordeste 34 Nordeste 0 -- -- 80
2019-06-13 22:00:00 20.4 18 Nordeste 37 Este 0 -- -- 77
2019-06-13 21:00:00 20.9 21 Nordeste 41 Nordeste 0 -- -- 72
2019-06-13 20:00:00 22.3 19 Nordeste 43 Nordeste 0 -- -- 67
2019-06-13 19:00:00 24.4 24 Este 48 Este 0 -- -- 57
2019-06-13 18:00:00 25.3 27 Este 49 Este 0 -- -- 54
2019-06-13 17:00:00 27.4 23 Este 46 Este 0 -- -- 41
2019-06-13 16:00:00 27.7 23 Este 44 Este 0 -- -- 36
2019-06-13 15:00:00 27.6 23 Nordeste 44 Este 0 -- -- 36
2019-06-13 14:00:00 26.9 27 Este 57 Nordeste 0 -- -- 34
2019-06-13 13:00:00 26.2 23 Este 44 Este 0 -- -- 37
2019-06-13 12:00:00 24.2 22 Este 40 Este 0 -- -- 46
2019-06-13 11:00:00 23.6 21 Nordeste 41 Este 0 -- -- 48
2019-06-13 10:00:00 20.8 22 Nordeste 46 Este 0 -- -- 65
2019-06-13 09:00:00 20.9 21 Este 40 Este 0 -- -- 68
2019-06-13 08:00:00 19.1 20 Nordeste 34 Nordeste 0 -- -- 80
2019-06-13 07:00:00 15.9 16 Nordeste 28 Nordeste 0 -- -- 89
2019-06-13 06:00:00 15.5 15 Nordeste 26 Nordeste 0 -- -- 89
2019-06-13 05:00:00 15 14 Nordeste 22 Nordeste 0 -- -- 89
2019-06-13 04:00:00 15.1 11 Nordeste 20 Nordeste 0 -- -- 87
2019-06-13 03:00:00 15 13 Nordeste 22 Nordeste 0 -- -- 86
2019-06-13 02:00:00 15.2 12 Nordeste 21 Nordeste 0 -- -- 85
2019-06-13 01:00:00 15.4 12 Nordeste 17 Nordeste 0 -- -- 83
2019-06-13 00:00:00 15.7 11 Nordeste 19 Este 0 -- -- 80
2019-06-12 23:00:00 16.5 10 Este 21 Este 0 -- -- 76
2019-06-12 22:00:00 17.4 14 Este 26 Este 0 -- -- 72
2019-06-12 21:00:00 18.5 18 Este 32 Sudeste 0 -- -- 69
2019-06-12 20:00:00 19.9 24 Sudeste 39 Sudeste 0 -- -- 63
2019-06-12 19:00:00 20.7 18 Sudeste 33 Sudeste 0 -- -- 61
2019-06-12 18:00:00 21 24 Sudeste 39 Este 0 -- -- 60
2019-06-12 17:00:00 22.2 21 Sudeste 33 Sudeste 0 -- -- 58
2019-06-12 16:00:00 22.6 17 Sudeste 35 Sudeste 0 -- -- 57
2019-06-12 15:00:00 22 17 Sudeste 27 Sudeste 0 -- -- 59
2019-06-12 14:00:00 21.6 13 Sudeste 22 Sudeste 0 -- -- 60
2019-06-12 13:00:00 21.4 10 Sur 18 Sur 0 -- -- 57
2019-06-12 12:00:00 22.7 7 Nordeste 21 Nordeste 0 -- -- 53
2019-06-12 11:00:00 20.2 11 Nordeste 20 Nordeste 0 -- -- 61
2019-06-12 10:00:00 19 10 Este 23 Nordeste 0 -- -- 66
2019-06-12 09:00:00 18.6 13 Nordeste 31 Nordeste 0 -- -- 68
2019-06-12 08:00:00 17.1 14 Este 23 Este 0 -- -- 73
2019-06-12 07:00:00 16 13 Nordeste 23 Nordeste 0 -- -- 75
2019-06-12 06:00:00 16 13 Este 25 Este 0 -- -- 75
2019-06-12 05:00:00 15.8 12 Nordeste 21 Nordeste 0 -- -- 76
2019-06-12 04:00:00 15.9 10 Nordeste 24 Nordeste 0 -- -- 77
2019-06-12 03:00:00 15.5 15 Nordeste 28 Nordeste 0 -- -- 80
2019-06-12 02:00:00 15.6 18 Nordeste 32 Nordeste 0 -- -- 81
2019-06-12 01:00:00 15.6 18 Nordeste 40 Nordeste 0 -- -- 83
2019-06-12 00:00:00 16.1 19 Nordeste 41 Nordeste 0 -- -- 81
2019-06-11 23:00:00 16.8 19 Nordeste 35 Nordeste 0 -- -- 83
2019-06-11 22:00:00 18.3 18 Nordeste 30 Nordeste 0 -- -- 78
2019-06-11 21:00:00 19.3 12 Noroeste 20 Oeste 0 -- -- 77
2019-06-11 20:00:00 20.5 12 Oeste 19 Oeste 0 -- -- 71
2019-06-11 19:00:00 24 10 Sudoeste 16 Sudoeste 0 -- -- 60
2019-06-11 18:00:00 24.2 10 Sudoeste 17 Sur 0 -- -- 61
2019-06-11 17:00:00 24.2 10 Sudoeste 18 Sudoeste 0 -- -- 60
2019-06-11 16:00:00 23 13 Sur 27 Sur 0 -- -- 64
2019-06-11 15:00:00 23.5 14 Sudeste 30 Sudeste 0 -- -- 64
2019-06-11 14:00:00 22.2 15 Sudeste 26 Este 0 -- -- 68
2019-06-11 13:00:00 21.6 13 Sudeste 26 Sudeste 0 -- -- 71
2019-06-11 12:00:00 21.1 17 Sudeste 28 Sudeste 0 -- -- 70
2019-06-11 11:00:00 20.7 17 Sudeste 28 Sur 0 -- -- 70
2019-06-11 10:00:00 21.6 14 Sudeste 31 Este 0 -- -- 69
2019-06-11 09:00:00 20.7 18 Este 29 Este 0 -- -- 72
2019-06-11 08:00:00 19.1 13 Este 24 Nordeste 0 -- -- 88
2019-06-11 07:00:00 15.8 10 Este 16 Este 0 -- -- 91
2019-06-11 06:00:00 15.9 9 Este 13 Este 0 -- -- 91
2019-06-11 05:00:00 16.2 8 Nordeste 13 Nordeste 0 -- -- 90
2019-06-11 04:00:00 16 8 Nordeste 12 Nordeste 0 -- -- 86
2019-06-11 03:00:00 16.8 7 Nordeste 10 Nordeste 0 -- -- 84
2019-06-11 02:00:00 17.1 8 Este 13 Este 0 -- -- 79
2019-06-11 01:00:00 17.7 10 Este 15 Este 0 -- -- 76
2019-06-11 00:00:00 18.5 9 Sudeste 18 Este 0 -- -- 74
2019-06-10 23:00:00 19.3 11 Sudeste 21 Sudeste 0 -- -- 73
2019-06-10 22:00:00 19.6 14 Sudeste 20 Este 0 -- -- 72
2019-06-10 21:00:00 20.6 9 Sudeste 19 Sudeste 0 -- -- 68
2019-06-10 20:00:00 21.9 12 Sur 19 Sudoeste 0 -- -- 67
2019-06-10 19:00:00 23.3 13 Sur 20 Sur 0 -- -- 67
2019-06-10 18:00:00 23.8 15 Sur 23 Sudoeste 0 -- -- 66
2019-06-10 17:00:00 24.2 15 Sudoeste 28 Sudoeste 0 -- -- 64
2019-06-10 16:00:00 25 17 Sudoeste 27 Sudoeste 0 -- -- 63
2019-06-10 15:00:00 25 17 Sudoeste 27 Oeste 0 -- -- 63
2019-06-10 14:00:00 25.2 16 Sudoeste 33 Sudoeste 0 -- -- 62
2019-06-10 13:00:00 25.4 15 Oeste 23 Oeste 0 -- -- 64
2019-06-10 12:00:00 25.2 6 Nordeste 25 Nordeste 0 -- -- 54
2019-06-10 11:00:00 26 14 Nordeste 33 Nordeste 0 -- -- 52
2019-06-10 10:00:00 24.8 18 Nordeste 40 Nordeste 0 -- -- 56
2019-06-10 09:00:00 23.2 19 Nordeste 39 Nordeste 0 -- -- 60
2019-06-10 08:00:00 21.8 15 Nordeste 33 Norte 0 -- -- 66
2019-06-10 07:00:00 18.9 17 Nordeste 32 Nordeste 0 -- -- 80
2019-06-10 06:00:00 17.4 16 Nordeste 30 Nordeste 0 -- -- 91
2019-06-10 05:00:00 17.1 10 Norte 16 Noroeste 0 -- -- 91
2019-06-10 04:00:00 18.1 10 Noroeste 28 Noroeste 0 -- -- 89
2019-06-10 03:00:00 18.4 16 Oeste 30 Oeste 0 -- -- 88
2019-06-10 02:00:00 18.4 17 Oeste 26 Oeste 0 -- -- 89
2019-06-10 01:00:00 17.5 7 Oeste 10 Nordeste 0 -- -- 89
2019-06-10 00:00:00 18.2 8 Nordeste 12 Nordeste 0 -- -- 87
2019-06-09 23:00:00 19.2 3 Sudeste 14 Oeste 0 -- -- 86
2019-06-09 22:00:00 19.3 10 Oeste 18 Oeste 0 -- -- 85
2019-06-09 21:00:00 19.6 8 Oeste 15 Oeste 0 -- -- 82
2019-06-09 20:00:00 20 12 Oeste 31 Noroeste 0 -- -- 79
2019-06-09 19:00:00 21.1 21 Oeste 45 Oeste 0 -- -- 73
2019-06-09 18:00:00 22.2 21 Oeste 37 Oeste 0 -- -- 70
2019-06-09 17:00:00 23.9 21 Oeste 34 Oeste 0 -- -- 65
2019-06-09 16:00:00 22.9 23 Oeste 34 Oeste 0 -- -- 67
2019-06-09 15:00:00 23.2 19 Oeste 31 Noroeste 0 -- -- 65
2019-06-09 14:00:00 23.4 17 Oeste 28 Oeste 0 -- -- 62
2019-06-09 13:00:00 21.9 18 Oeste 37 Oeste 0 -- -- 69
2019-06-09 12:00:00 22.7 19 Oeste 28 Oeste 0 -- -- 68
2019-06-09 11:00:00 23.5 14 Oeste 21 Sudoeste 0 -- -- 65
2019-06-09 10:00:00 24.5 13 Oeste 19 Oeste 0 -- -- 59
2019-06-09 09:00:00 22.9 5 Norte 20 Nordeste 0 -- -- 69
2019-06-09 08:00:00 20.3 12 Nordeste 21 Nordeste 0 -- -- 73
2019-06-09 07:00:00 17.9 8 Nordeste 14 Nordeste 0 -- -- 71
2019-06-09 06:00:00 18 6 Noroeste 10 Norte 0 -- -- 68
2019-06-09 05:00:00 19.3 6 Nordeste 39 Nordeste 0 -- -- 63
2019-06-09 04:00:00 19.6 21 Este 35 Nordeste 0 -- -- 59
2019-06-09 03:00:00 19 17 Nordeste 33 Nordeste 0 -- -- 60
2019-06-09 02:00:00 18.4 19 Nordeste 37 Nordeste 0 -- -- 65
2019-06-09 01:00:00 18.5 18 Nordeste 33 Nordeste 0 -- -- 62
2019-06-09 00:00:00 19 19 Nordeste 36 Nordeste 0 -- -- 58
2019-06-08 23:00:00 19 18 Nordeste 33 Nordeste 0 -- -- 58
2019-06-08 22:00:00 19.4 17 Nordeste 29 Nordeste 0 -- -- 56
2019-06-08 21:00:00 21.2 17 Nordeste 36 Nordeste 0 -- -- 49
2019-06-08 20:00:00 23.9 17 Nordeste 34 Nordeste 0 -- -- 41
2019-06-08 19:00:00 26.1 19 Nordeste 37 Nordeste 0 -- -- 36
2019-06-08 18:00:00 27 19 Nordeste 39 Nordeste 0 -- -- 33
2019-06-08 17:00:00 27.3 25 Nordeste 42 Este 0 -- -- 31
2019-06-08 16:00:00 28.1 20 Nordeste 43 Este 0 -- -- 33
2019-06-08 15:00:00 27.6 22 Nordeste 43 Nordeste 0 -- -- 31
2019-06-08 14:00:00 26.4 26 Este 45 Este 0 -- -- 32
2019-06-08 13:00:00 26.5 26 Este 49 Este 0 -- -- 33
2019-06-08 12:00:00 25.2 29 Este 49 Nordeste 0 -- -- 37
2019-06-08 11:00:00 24.4 25 Este 50 Nordeste 0 -- -- 43
2019-06-08 10:00:00 22.1 35 Nordeste 53 Este 0 -- -- 51
2019-06-08 09:00:00 19.8 27 Nordeste 50 Nordeste 0 -- -- 65
2019-06-08 08:00:00 18.9 24 Nordeste 45 Nordeste 0 -- -- 68
2019-06-08 07:00:00 18.2 26 Nordeste 44 Nordeste 0 -- -- 69
2019-06-08 06:00:00 17.7 21 Nordeste 40 Nordeste 0 -- -- 75
2019-06-08 05:00:00 17.7 22 Nordeste 41 Nordeste 0 -- -- 83
2019-06-08 04:00:00 17.5 14 Nordeste 26 Nordeste 0 -- -- 84
2019-06-08 03:00:00 17.3 13 Nordeste 25 Nordeste 0 -- -- 78
2019-06-08 02:00:00 17.7 10 Nordeste 18 Nordeste 0 -- -- 78
2019-06-08 01:00:00 17.9 10 Nordeste 14 Este 0 -- -- 77
2019-06-08 00:00:00 18.2 9 Este 15 Este 0 -- -- 79
2019-06-07 23:00:00 18.8 8 Este 14 Sudeste 0 -- -- 81
2019-06-07 22:00:00 20.1 9 Sudeste 18 Sudeste 0 -- -- 77
2019-06-07 21:00:00 21.6 9 Sudoeste 14 Sudoeste 0 -- -- 66
2019-06-07 20:00:00 23.9 9 Oeste 20 Oeste 0 -- -- 55
2019-06-07 19:00:00 24.2 12 Oeste 22 Oeste 0 -- -- 56
2019-06-07 18:00:00 24.5 14 Oeste 26 Oeste 0 -- -- 60
2019-06-07 17:00:00 25.3 16 Oeste 27 Oeste 0 -- -- 56
2019-06-07 16:00:00 25 15 Oeste 26 Oeste 0 -- -- 59
2019-06-07 15:00:00 24.7 16 Oeste 31 Oeste 0 -- -- 57
2019-06-07 14:00:00 24.5 20 Oeste 32 Oeste 0 -- -- 61
2019-06-07 13:00:00 24.7 17 Oeste 27 Oeste 0 -- -- 67
2019-06-07 12:00:00 23.9 15 Oeste 27 Oeste 0 -- -- 70
2019-06-07 11:00:00 24.2 12 Oeste 27 Sudoeste 0 -- -- 70
2019-06-07 10:00:00 23.7 12 Sudoeste 18 Sudoeste 0 -- -- 70
2019-06-07 09:00:00 22 7 Sur 12 Sudoeste 0 -- -- 81
2019-06-07 08:00:00 19.9 5 Nordeste 8 Nordeste 0 -- -- 92
2019-06-07 07:00:00 16.9 8 Norte 13 Norte 0 -- -- 96
2019-06-07 06:00:00 16.5 9 Norte 15 Norte 0 -- -- 95
2019-06-07 05:00:00 16.2 10 Nordeste 14 Nordeste 0 -- -- 94
2019-06-07 04:00:00 16.4 9 Nordeste 12 Nordeste 0 -- -- 93
2019-06-07 03:00:00 16.8 8 Nordeste 12 Nordeste 0 -- -- 92
2019-06-07 02:00:00 17.1 8 Nordeste 13 Este 0 -- -- 91
2019-06-07 01:00:00 17.3 9 Nordeste 15 Este 0 -- -- 89
2019-06-07 00:00:00 18.5 12 Este 34 Este 0 -- -- 86
2019-06-06 23:00:00 19.1 18 Este 37 Sudeste 0 -- -- 85
2019-06-06 22:00:00 19.1 21 Sudeste 35 Este 0 -- -- 84
2019-06-06 21:00:00 19.5 18 Sudeste 33 Sudeste 0 -- -- 80
2019-06-06 20:00:00 21.1 15 Sudeste 30 Sudeste 0 -- -- 74
2019-06-06 19:00:00 21.9 19 Sudeste 32 Sudeste 0 -- -- 72
2019-06-06 18:00:00 22.6 21 Sudeste 35 Este 0 -- -- 69
2019-06-06 17:00:00 23 20 Sudeste 34 Sudeste 0 -- -- 68
2019-06-06 16:00:00 23.1 22 Sudeste 35 Sudeste 0 -- -- 68
2019-06-06 15:00:00 23.6 20 Sudeste 39 Sudeste 0 -- -- 57
2019-06-06 14:00:00 23.5 20 Sudeste 37 Sudeste 0 -- -- 59
2019-06-06 13:00:00 23.3 18 Sudeste 31 Sudeste 0 -- -- 61
2019-06-06 12:00:00 23.3 17 Sudeste 30 Sur 0 -- -- 57
2019-06-06 11:00:00 23 17 Sudeste 30 Este 0 -- -- 58
2019-06-06 10:00:00 23 14 Este 26 Este 0 -- -- 55
2019-06-06 09:00:00 20.6 16 Este 28 Nordeste 0 -- -- 65
2019-06-06 08:00:00 18.9 14 Este 22 Nordeste 0 -- -- 74
2019-06-06 07:00:00 15.8 13 Nordeste 18 Este 0 -- -- 79
2019-06-06 06:00:00 15.6 13 Nordeste 19 Nordeste 0 -- -- 69
2019-06-06 05:00:00 16.5 8 Nordeste 13 Nordeste 0 -- -- 59
2019-06-06 04:00:00 17.7 7 Norte 10 Noroeste 0 -- -- 59
2019-06-06 03:00:00 18 7 Noroeste 12 Noroeste 0 -- -- 53
2019-06-06 02:00:00 18.4 8 Noroeste 16 Noroeste 0 -- -- 54
2019-06-06 01:00:00 18.7 10 Noroeste 15 Noroeste 0 -- -- 50
2019-06-06 00:00:00 18.3 9 Noroeste 17 Noroeste 0 -- -- 52
2019-06-05 23:00:00 18.8 12 Noroeste 19 Noroeste 0 -- -- 56
2019-06-05 22:00:00 18.8 9 Noroeste 19 Noroeste 0 -- -- 59
2019-06-05 21:00:00 20.4 11 Oeste 20 Oeste 0 -- -- 65
2019-06-05 20:00:00 24 10 Oeste 33 Oeste 0 -- -- 51
2019-06-05 19:00:00 22.8 20 Oeste 37 Oeste 0 -- -- 49
2019-06-05 18:00:00 24.6 19 Oeste 33 Oeste 0 -- -- 49
2019-06-05 17:00:00 25.6 19 Oeste 31 Oeste 0 -- -- 54
2019-06-05 16:00:00 24.8 15 Oeste 33 Oeste 0 -- -- 63
2019-06-05 15:00:00 25.7 19 Oeste 31 Oeste 0 -- -- 65
2019-06-05 14:00:00 24.5 16 Oeste 32 Oeste 0 -- -- 69
2019-06-05 13:00:00 24.5 18 Oeste 30 Sudoeste 0 -- -- 67
2019-06-05 12:00:00 24.4 17 Sudoeste 26 Sudoeste 0 -- -- 69
2019-06-05 11:00:00 23.1 14 Sudoeste 27 Sur 0 -- -- 72
2019-06-05 10:00:00 22.8 15 Sur 25 Sur 0 -- -- 79
2019-06-05 09:00:00 21.6 11 Sudeste 17 Sudeste 0 -- -- 89
2019-06-05 08:00:00 19 7 Sur 14 Sur 0 -- -- 95
2019-06-05 07:00:00 16.6 5 Sudeste 12 Este 0 -- -- 97
2019-06-05 06:00:00 16.1 9 Este 13 Este 0 -- -- 97
2019-06-05 05:00:00 16.4 6 Nordeste 9 Nordeste 0 -- -- 95
2019-06-05 04:00:00 17.3 6 Este 13 Nordeste 0 -- -- 94
2019-06-05 03:00:00 16.6 8 Nordeste 12 Nordeste 0 -- -- 93
2019-06-05 02:00:00 16.3 5 Nordeste 12 Este 0 -- -- 92
2019-06-05 01:00:00 16.9 10 Este 14 Este 0 -- -- 90
2019-06-05 00:00:00 17.4 13 Este 17 Este 0 -- -- 88
2019-06-04 23:00:00 18 10 Este 20 Este 0 -- -- 85
2019-06-04 22:00:00 18.9 14 Este 24 Este 0 -- -- 81
2019-06-04 21:00:00 20.6 14 Sudeste 23 Sudeste 0 -- -- 71
2019-06-04 20:00:00 22.4 17 Este 26 Este 0 -- -- 63
2019-06-04 19:00:00 23.5 15 Sudeste 27 Sudeste 0 -- -- 60
2019-06-04 18:00:00 25 15 Sudeste 28 Sudeste 0 -- -- 53
2019-06-04 17:00:00 24.8 18 Sudeste 31 Sudeste 0 -- -- 50
2019-06-04 16:00:00 26.7 16 Sudeste 34 Sudeste 0 -- -- 36
2019-06-04 15:00:00 26.1 19 Sudeste 32 Sudeste 0 -- -- 37
2019-06-04 14:00:00 25.5 20 Sudeste 33 Sur 0 -- -- 40
2019-06-04 13:00:00 25.6 19 Sudeste 32 Sudeste 0 -- -- 38
2019-06-04 12:00:00 25.1 17 Sudeste 28 Sudeste 0 -- -- 40
2019-06-04 11:00:00 24.6 18 Sudeste 28 Sudeste 0 -- -- 43
2019-06-04 10:00:00 24.7 13 Sudeste 24 Este 0 -- -- 43
2019-06-04 09:00:00 23 13 Este 20 Este 0 -- -- 55
2019-06-04 08:00:00 20.2 10 Nordeste 17 Nordeste 0 -- -- 72
2019-06-04 07:00:00 15.2 12 Nordeste 18 Nordeste 0 -- -- 87
2019-06-04 06:00:00 14.6 9 Nordeste 14 Nordeste 0 -- -- 89
2019-06-04 05:00:00 15.7 7 Nordeste 10 Nordeste 0 -- -- 90
2019-06-04 04:00:00 14.8 8 Norte 11 Nordeste 0 -- -- 88
2019-06-04 03:00:00 15.4 8 Nordeste 13 Este 0 -- -- 87
2019-06-04 02:00:00 15.6 10 Este 15 Este 0 -- -- 85
2019-06-04 01:00:00 16.2 10 Este 14 Este 0 -- -- 84
2019-06-04 00:00:00 17.1 11 Este 17 Este 0 -- -- 84
2019-06-03 23:00:00 17.4 11 Este 15 Este 0 -- -- 84
2019-06-03 22:00:00 17.9 9 Este 12 Sudeste 0 -- -- 79
2019-06-03 21:00:00 19.9 10 Sudeste 17 Sudeste 0 -- -- 69
2019-06-03 20:00:00 22.7 10 Sudeste 17 Sudeste 0 -- -- 49
2019-06-03 19:00:00 24.5 10 Sudeste 21 Sudeste 0 -- -- 43
2019-06-03 18:00:00 23 12 Sudeste 19 Sur 0 -- -- 52
2019-06-03 17:00:00 24 12 Sudeste 23 Sudeste 0 -- -- 51
2019-06-03 16:00:00 24.6 15 Sudeste 26 Este 0 -- -- 45
2019-06-03 15:00:00 24.1 18 Sudeste 30 Sudeste 0 -- -- 54
2019-06-03 14:00:00 25.2 15 Sudeste 23 Sudeste 0 -- -- 43
2019-06-03 13:00:00 25.6 14 Sudeste 20 Sudeste 0 -- -- 40
2019-06-03 12:00:00 25.5 12 Sudeste 18 Sudeste 0 -- -- 36
2019-06-03 11:00:00 25.4 11 Sudeste 18 Sudeste 0 -- -- 34
2019-06-03 10:00:00 25 10 Sudeste 15 Sur 0 -- -- 37
2019-06-03 09:00:00 23.2 9 Este 15 Este 0 -- -- 45
2019-06-03 08:00:00 22.6 4 Nordeste 10 Nordeste 0 -- -- 49
2019-06-03 07:00:00 15.9 6 Nordeste 10 Nordeste 0 -- -- 57
2019-06-03 06:00:00 15.7 7 Nordeste 9 Nordeste 0 -- -- 58
2019-06-03 05:00:00 15.9 7 Norte 10 Nordeste 0 -- -- 59
2019-06-03 04:00:00 15.9 6 Norte 12 Norte 0 -- -- 65
2019-06-03 03:00:00 15.7 7 Norte 10 Norte 0 -- -- 78
2019-06-03 02:00:00 15.5 6 Nordeste 12 Nordeste 0 -- -- 81
2019-06-03 01:00:00 16 6 Nordeste 13 Nordeste 0 -- -- 79
2019-06-03 00:00:00 16.5 10 Nordeste 13 Nordeste 0 -- -- 80
2019-06-02 23:00:00 17.3 10 Este 14 Este 0 -- -- 79
2019-06-02 22:00:00 17.9 9 Este 15 Este 0 -- -- 74
2019-06-02 21:00:00 19.9 10 Este 18 Este 0 -- -- 66
2019-06-02 20:00:00 21.8 10 Sudeste 20 Sudeste 0 -- -- 52
2019-06-02 19:00:00 22.9 12 Sudeste 23 Sudeste 0 -- -- 48
2019-06-02 18:00:00 24 13 Sudeste 20 Sudeste 0 -- -- 48
2019-06-02 17:00:00 24.3 14 Sudeste 27 Sudeste 0 -- -- 41
2019-06-02 16:00:00 25.3 13 Sudeste 23 Sudeste 0 -- -- 33
2019-06-02 15:00:00 24.8 14 Sudeste 25 Sudeste 0 -- -- 39
2019-06-02 14:00:00 23.9 14 Sudeste 27 Sur 0 -- -- 50
2019-06-02 13:00:00 23.7 15 Sudeste 25 Sudeste 0 -- -- 54
2019-06-02 12:00:00 24.2 14 Sudeste 22 Sudeste 0 -- -- 46
2019-06-02 11:00:00 23.6 12 Sudeste 21 Sur 0 -- -- 56
2019-06-02 10:00:00 22.5 12 Sudeste 19 Sudeste 0 -- -- 58
2019-06-02 09:00:00 22 8 Sudeste 15 Este 0 -- -- 64
2019-06-02 08:00:00 20.1 7 Este 11 Este 0 -- -- 82
2019-06-02 07:00:00 15.4 9 Este 13 Nordeste 0 -- -- 92
2019-06-02 06:00:00 15 9 Este 13 Este 0 -- -- 92
2019-06-02 05:00:00 15.2 6 Nordeste 8 Nordeste 0 -- -- 90
2019-06-02 04:00:00 15.3 6 Nordeste 10 Norte 0 -- -- 89
2019-06-02 03:00:00 14.4 9 Norte 14 Nordeste 0 -- -- 86
2019-06-02 02:00:00 15 8 Nordeste 10 Nordeste 0 -- -- 85
2019-06-02 01:00:00 16.1 8 Este 13 Nordeste 0 -- -- 84
2019-06-02 00:00:00 16.5 11 Este 13 Este 0 -- -- 79
2019-06-01 23:00:00 17.3 7 Este 10 Este 0 -- -- 73
2019-06-01 22:00:00 18.5 0 Calma -- -- 0 -- -- 70
2019-06-01 21:00:00 22.1 2 Sudoeste 10 Sudoeste 0 -- -- 59
2019-06-01 20:00:00 22.5 6 Sur 17 Sur 0 -- -- 60
2019-06-01 19:00:00 23 10 Sur 17 Sudoeste 0 -- -- 58
2019-06-01 18:00:00 23.7 11 Sudoeste 18 Sudoeste 0 -- -- 55
2019-06-01 17:00:00 23.9 11 Sudoeste 19 Sudoeste 0 -- -- 54
2019-06-01 16:00:00 24.1 13 Sudoeste 20 Sur 0 -- -- 56
2019-06-01 15:00:00 23.9 12 Sur 21 Sur 0 -- -- 52
2019-06-01 14:00:00 23.3 12 Sur 19 Sudoeste 0 -- -- 55
2019-06-01 13:00:00 23.5 13 Sur 22 Sur 0 -- -- 56
2019-06-01 12:00:00 24.4 13 Sur 21 Sudeste 0 -- -- 43
2019-06-01 11:00:00 24.2 12 Sudeste 19 Sudeste 0 -- -- 39
2019-06-01 10:00:00 24.6 9 Sudeste 13 Sur 0 -- -- 37
2019-06-01 09:00:00 23.1 5 Este 10 Este 0 -- -- 44
2019-06-01 08:00:00 21.6 4 Sudeste 5 Sur 0 -- -- 56
2019-06-01 07:00:00 15.8 2 Noroeste 10 Norte 0 -- -- 76
2019-06-01 06:00:00 14.2 9 Norte 10 Norte 0 -- -- 86
2019-06-01 05:00:00 16.4 3 Oeste 6 Sudoeste 0 -- -- 84
2019-06-01 04:00:00 16.3 5 Oeste 7 Oeste 0 -- -- 80
2019-06-01 03:00:00 16.2 5 Noroeste 8 Norte 0 -- -- 79
2019-06-01 02:00:00 16.7 6 Norte 9 Norte 0 -- -- 74
2019-06-01 01:00:00 16.4 7 Noroeste 9 Noroeste 0 -- -- 72
2019-06-01 00:00:00 16.6 6 Noroeste 7 Oeste 0 -- -- 75
2019-05-31 23:00:00 17.4 6 Sudoeste 7 Sudoeste 0 -- -- 72
2019-05-31 22:00:00 17.8 5 Oeste 6 Sudoeste 0 -- -- 70
2019-05-31 21:00:00 20.4 4 Sudoeste 10 Oeste 0 -- -- 59
2019-05-31 20:00:00 22.5 7 Sudoeste 17 Oeste 0 -- -- 55
2019-05-31 19:00:00 23.5 12 Sudoeste 17 Oeste 0 -- -- 54
2019-05-31 18:00:00 23.8 13 Sudoeste 18 Sudoeste 0 -- -- 52
2019-05-31 17:00:00 24.3 12 Sudoeste 18 Sudoeste 0 -- -- 51
2019-05-31 16:00:00 24.2 13 Sudoeste 20 Sur 0 -- -- 53
2019-05-31 15:00:00 24.1 12 Sudoeste 21 Sudoeste 0 -- -- 55
2019-05-31 14:00:00 23.1 12 Sudoeste 21 Sudoeste 0 -- -- 56
2019-05-31 13:00:00 22.9 13 Sudoeste 21 Sudoeste 0 -- -- 62
2019-05-31 12:00:00 22.8 12 Sudoeste 22 Sudoeste 0 -- -- 55
2019-05-31 11:00:00 22.6 13 Sudeste 19 Sur 0 -- -- 48
2019-05-31 10:00:00 22.6 11 Sudeste 18 Sudeste 0 -- -- 46
2019-05-31 09:00:00 21.8 8 Este 15 Este 0 -- -- 49
2019-05-31 08:00:00 19 8 Nordeste 12 Nordeste 0 -- -- 66
2019-05-31 07:00:00 15.6 4 Norte 10 Noroeste 0 -- -- 82
2019-05-31 06:00:00 15.5 8 Noroeste 12 Noroeste 0 -- -- 83
2019-05-31 05:00:00 15.3 9 Noroeste 13 Noroeste 0 -- -- 81
2019-05-31 04:00:00 15.9 10 Noroeste 17 Noroeste 0 -- -- 79
2019-05-31 03:00:00 15.9 12 Noroeste 19 Oeste 0 -- -- 80
2019-05-31 02:00:00 15.8 9 Noroeste 17 Noroeste 0 -- -- 80
2019-05-31 01:00:00 16.4 10 Oeste 20 Oeste 0 -- -- 82
2019-05-31 00:00:00 16.8 11 Oeste 17 Oeste 0 -- -- 83
2019-05-30 23:00:00 17 10 Oeste 19 Oeste 0 -- -- 81
2019-05-30 22:00:00 17.3 11 Oeste 21 Oeste 0 -- -- 77
2019-05-30 21:00:00 18.2 13 Oeste 24 Noroeste 0 -- -- 72
2019-05-30 20:00:00 19.8 15 Oeste 28 Oeste 0 -- -- 67
2019-05-30 19:00:00 20.9 17 Oeste 30 Oeste 0 -- -- 63
2019-05-30 18:00:00 21.7 18 Oeste 31 Oeste 0 -- -- 57
2019-05-30 17:00:00 22.6 18 Oeste 36 Oeste 0 -- -- 50
2019-05-30 16:00:00 22.2 19 Oeste 33 Oeste 0 -- -- 55
2019-05-30 15:00:00 22.2 18 Oeste 30 Sudoeste 0 -- -- 60
2019-05-30 14:00:00 21.9 18 Oeste 35 Oeste 0 -- -- 62
2019-05-30 13:00:00 21.7 17 Oeste 27 Oeste 0 -- -- 61
2019-05-30 12:00:00 21.7 14 Oeste 26 Oeste 0 -- -- 61
2019-05-30 11:00:00 21.1 17 Oeste 28 Oeste 0 -- -- 63
2019-05-30 10:00:00 20.4 14 Oeste 24 Oeste 0 -- -- 68
2019-05-30 09:00:00 19.5 12 Oeste 22 Oeste 0 -- -- 70
2019-05-30 08:00:00 17.8 13 Oeste 19 Oeste 0 -- -- 77
2019-05-30 07:00:00 15.4 10 Oeste 17 Oeste 0 -- -- 84
2019-05-30 06:00:00 14 10 Oeste 14 Noroeste 0 -- -- 86
2019-05-30 05:00:00 13.7 9 Oeste 14 Oeste 0 -- -- 84
2019-05-30 04:00:00 13.5 8 Noroeste 9 Noroeste 0 -- -- 82
2019-05-30 03:00:00 14.1 7 Noroeste 9 Noroeste 0 -- -- 78
2019-05-30 02:00:00 14.8 3 Sudoeste 6 Sur 0 -- -- 79
2019-05-30 01:00:00 13.6 4 Este 6 Este 0 -- -- 75
2019-05-30 00:00:00 15.3 3 Sudeste 9 Sudeste 0 -- -- 73
2019-05-29 23:00:00 15.9 6 Sur 12 Sur 0 -- -- 72
2019-05-29 22:00:00 16.1 7 Sur 12 Sur 0 -- -- 69
2019-05-29 21:00:00 17.8 4 Sudoeste 16 Sur 0 -- -- 61
2019-05-29 20:00:00 19.3 12 Sur 19 Sudoeste 0 -- -- 57
2019-05-29 19:00:00 20.9 11 Sudoeste 24 Sur 0 -- -- 53
2019-05-29 18:00:00 20.8 16 Sur 24 Sudoeste 0 -- -- 55
2019-05-29 17:00:00 21.3 14 Sudoeste 26 Sudoeste 0 -- -- 58
2019-05-29 16:00:00 20.5 15 Sur 25 Sur 0 -- -- 59
2019-05-29 15:00:00 21.2 17 Sur 25 Sur 0 -- -- 56
2019-05-29 14:00:00 20.5 14 Sur 23 Sur 0 -- -- 60
2019-05-29 13:00:00 19.1 14 Sur 23 Sur 0 -- -- 67
2019-05-29 12:00:00 18.5 12 Sudeste 21 Sudeste 0 -- -- 69
2019-05-29 11:00:00 18.6 11 Sudeste 18 Sudeste 0 -- -- 71
2019-05-29 10:00:00 18.5 8 Este 15 Sudeste 0 -- -- 73
2019-05-29 09:00:00 16 5 Este 13 Sudeste 0 -- -- 86
2019-05-29 08:00:00 14.8 6 Nordeste 10 Norte 0 -- -- 86
2019-05-29 07:00:00 14 3 Norte 15 Noroeste 1.2 -- -- 81
2019-05-29 06:00:00 15.5 5 Noroeste 12 Norte 0 -- -- 77
2019-05-29 05:00:00 14.9 8 Norte 13 Norte 0 -- -- 78
2019-05-29 04:00:00 14.9 7 Norte 11 Norte 0 -- -- 79
2019-05-29 03:00:00 14.7 7 Norte 11 Norte 0 -- -- 80
2019-05-29 02:00:00 14.6 7 Norte 13 Nordeste 0 -- -- 80
2019-05-29 01:00:00 14.6 10 Nordeste 14 Nordeste 0 -- -- 79
2019-05-29 00:00:00 15.1 10 Nordeste 19 Nordeste 0 -- -- 77
2019-05-28 23:00:00 15.8 12 Nordeste 24 Nordeste 0 -- -- 75
2019-05-28 22:00:00 16.2 13 Este 35 Nordeste 0 -- -- 75
2019-05-28 21:00:00 17.2 21 Nordeste 42 Este 0 -- -- 73
2019-05-28 20:00:00 20.3 20 Nordeste 36 Nordeste 0 -- -- 64
2019-05-28 19:00:00 22.3 8 Oeste 24 Oeste 0 -- -- 54
2019-05-28 18:00:00 21 14 Oeste 30 Oeste 0 -- -- 59
2019-05-28 17:00:00 22.4 18 Oeste 30 Oeste 0 -- -- 53
2019-05-28 16:00:00 21.9 18 Oeste 30 Oeste 0 -- -- 57
2019-05-28 15:00:00 21.2 17 Oeste 27 Oeste 0 -- -- 64
2019-05-28 14:00:00 21.4 18 Oeste 25 Oeste 0 -- -- 64
2019-05-28 13:00:00 20.8 16 Oeste 23 Oeste 0 -- -- 66
2019-05-28 12:00:00 22 13 Oeste 19 Oeste 0 -- -- 67
2019-05-28 11:00:00 20.4 12 Oeste 17 Oeste 0 -- -- 91
2019-05-28 10:00:00 18.9 8 Sur 15 Sur 0 -- -- 93
2019-05-28 09:00:00 19.5 8 Sur 12 Sur 0 -- -- 96
2019-05-28 08:00:00 17.5 5 Sur 7 Sur 0 -- -- 98
2019-05-28 07:00:00 15.4 0 Calma 7 Sur 0 -- -- 96
2019-05-28 06:00:00 16.5 4 Sudeste 6 Sur 0 -- -- 96
2019-05-28 05:00:00 16.5 3 Sudoeste 10 Sudoeste 0 -- -- 95
2019-05-28 04:00:00 16.8 7 Sudoeste 12 Oeste 0 -- -- 94
2019-05-28 03:00:00 17.1 8 Sudoeste 13 Sudoeste 0 -- -- 94
2019-05-28 02:00:00 17.1 5 Sudoeste 10 Sudoeste 0 -- -- 93
2019-05-28 01:00:00 17 5 Sur 13 Sur 0 -- -- 92
2019-05-28 00:00:00 17.1 7 Sudeste 12 Sudeste 0 -- -- 90
2019-05-27 23:00:00 16.8 5 Sudeste 8 Sur 0 -- -- 86
2019-05-27 22:00:00 17.5 6 Sur 9 Sur 0 -- -- 82
2019-05-27 21:00:00 19.5 4 Sudeste 12 Sudoeste 0 -- -- 70
2019-05-27 20:00:00 21.6 8 Sudoeste 17 Sudoeste 0 -- -- 68
2019-05-27 19:00:00 22.4 9 Sudoeste 21 Oeste 0 -- -- 65
2019-05-27 18:00:00 22.4 12 Oeste 26 Sudoeste 0 -- -- 63
2019-05-27 17:00:00 22 17 Oeste 28 Oeste 0 -- -- 63
2019-05-27 16:00:00 22.8 18 Oeste 29 Sudoeste 0 -- -- 62
2019-05-27 15:00:00 22.8 17 Sudoeste 28 Sudoeste 0 -- -- 60
2019-05-27 14:00:00 23.4 17 Sudoeste 24 Sudoeste 0 -- -- 59
2019-05-27 13:00:00 24.9 9 Sudoeste 17 Oeste 0 -- -- 44
2019-05-27 12:00:00 23 10 Sudoeste 17 Sudoeste 0 -- -- 49
2019-05-27 11:00:00 23.7 8 Sudoeste 16 Oeste 0 -- -- 48
2019-05-27 10:00:00 20.2 10 Oeste 18 Oeste 0 -- -- 69
2019-05-27 09:00:00 20.9 10 Oeste 16 Oeste 0 -- -- 65
2019-05-27 08:00:00 19.2 8 Noroeste 12 Noroeste 0 -- -- 65
2019-05-27 07:00:00 14.8 8 Noroeste 13 Oeste 0 -- -- 72
2019-05-27 06:00:00 14.7 9 Oeste 17 Oeste 0 -- -- 72
2019-05-27 05:00:00 15.9 10 Noroeste 25 Noroeste 0 -- -- 69
2019-05-27 04:00:00 16.5 18 Noroeste 29 Oeste 0 -- -- 69
2019-05-27 03:00:00 16.3 18 Noroeste 28 Oeste 0 -- -- 87
2019-05-27 02:00:00 16.4 16 Oeste 24 Oeste 0 -- -- 89
2019-05-27 01:00:00 16.3 11 Oeste 19 Oeste 0 -- -- 86
2019-05-27 00:00:00 16.3 6 Oeste 10 Oeste 0 -- -- 83
2019-05-26 23:00:00 16.4 7 Sudoeste 8 Sudoeste 0 -- -- 82
2019-05-26 22:00:00 17 7 Sudoeste 12 Sur 0 -- -- 73
2019-05-26 21:00:00 18 4 Sudoeste 8 Sudoeste 0 -- -- 65
2019-05-26 20:00:00 18.5 6 Oeste 16 Sudoeste 0 -- -- 70
2019-05-26 19:00:00 20.6 9 Sudoeste 16 Sudoeste 0 -- -- 60
2019-05-26 18:00:00 22.6 11 Oeste 19 Oeste 0 -- -- 49
2019-05-26 17:00:00 21.4 9 Sudeste 22 Noroeste 0 -- -- 61
2019-05-26 16:00:00 20.1 13 Noroeste 22 Noroeste 0 -- -- 60
2019-05-26 15:00:00 19.7 9 Oeste 22 Oeste 0 -- -- 71
2019-05-26 14:00:00 21.2 13 Oeste 21 Oeste 0 -- -- 65
2019-05-26 13:00:00 20.1 10 Oeste 23 Oeste 0 -- -- 69
2019-05-26 12:00:00 19.8 16 Oeste 24 Oeste 0 -- -- 65
2019-05-26 11:00:00 22 16 Noroeste 28 Noroeste 0 -- -- 59
2019-05-26 10:00:00 18.6 22 Noroeste 33 Noroeste 0 -- -- 69
2019-05-26 09:00:00 17.7 18 Noroeste 42 Noroeste 0 -- -- 73
2019-05-26 08:00:00 17.8 19 Noroeste 35 Noroeste 0 -- -- 72
2019-05-26 07:00:00 16.3 14 Noroeste 22 Noroeste 0 -- -- 78
2019-05-26 06:00:00 15.7 9 Noroeste 17 Noroeste 0 -- -- 83
2019-05-26 05:00:00 15.7 11 Noroeste 20 Noroeste 0 -- -- 84
2019-05-26 04:00:00 15.5 12 Noroeste 18 Noroeste 0 -- -- 81
2019-05-26 03:00:00 16.2 9 Noroeste 17 Oeste 0 -- -- 85
2019-05-26 02:00:00 16.3 7 Oeste 10 Oeste 0 -- -- 84
2019-05-26 01:00:00 15.9 6 Noroeste 9 Noroeste 0 -- -- 81
2019-05-26 00:00:00 16.1 4 Noroeste 10 Noroeste 0 -- -- 78
2019-05-25 23:00:00 16.2 4 Noroeste 14 Nordeste 0 -- -- 77
2019-05-25 22:00:00 16.5 5 Norte 18 Nordeste 0 -- -- 76
2019-05-25 21:00:00 17.1 12 Nordeste 23 Norte 0 -- -- 73
2019-05-25 20:00:00 17.6 10 Nordeste 27 Nordeste 0 -- -- 71
2019-05-25 19:00:00 19.5 13 Nordeste 28 Nordeste 0 -- -- 65
2019-05-25 18:00:00 20.2 14 Nordeste 32 Nordeste 0 -- -- 67
2019-05-25 17:00:00 18.6 15 Nordeste 44 Nordeste 0 -- -- 72
2019-05-25 16:00:00 20.7 20 Nordeste 41 Nordeste 0 -- -- 74
2019-05-25 15:00:00 17 7 Sudoeste 14 Sudeste 0.2 -- -- 85
2019-05-25 14:00:00 18.5 4 Sudeste 17 Este 0 -- -- 79
2019-05-25 13:00:00 18.6 9 Este 19 Este 0 -- -- 88
2019-05-25 12:00:00 16.9 12 Este 25 Este 0 -- -- 93
2019-05-25 11:00:00 16.1 9 Nordeste 20 Nordeste 1.4 -- -- 94
2019-05-25 10:00:00 15 11 Nordeste 26 Nordeste 0 -- -- 94
2019-05-25 09:00:00 15.8 11 Nordeste 19 Nordeste 0 -- -- 94
2019-05-25 08:00:00 15 10 Nordeste 18 Nordeste 0 -- -- 94
2019-05-25 07:00:00 14.7 9 Nordeste 14 Nordeste 0 -- -- 95
2019-05-25 06:00:00 14.3 7 Norte 10 Nordeste 0 -- -- 95
2019-05-25 05:00:00 14.3 7 Norte 12 Norte 0 -- -- 94
2019-05-25 04:00:00 14.3 8 Norte 12 Norte 0 -- -- 94
2019-05-25 03:00:00 13.8 9 Norte 14 Norte 0 -- -- 94
2019-05-25 02:00:00 13.9 9 Norte 14 Norte 0 -- -- 94
2019-05-25 01:00:00 13.5 10 Norte 15 Norte 0 -- -- 94
2019-05-25 00:00:00 13.7 9 Nordeste 14 Nordeste 0 -- -- 93
2019-05-24 23:00:00 13.9 10 Nordeste 14 Norte 0 -- -- 93
2019-05-24 22:00:00 14 10 Nordeste 14 Nordeste 0 -- -- 93
2019-05-24 21:00:00 14.6 8 Nordeste 15 Nordeste 0 -- -- 92
2019-05-24 20:00:00 14.8 7 Este 13 Este 0 -- -- 91
2019-05-24 19:00:00 14.9 9 Este 17 Este 1.2 -- -- 90
2019-05-24 18:00:00 15.1 5 Nordeste 23 Norte 1.8 -- -- 88
2019-05-24 17:00:00 15.6 8 Norte 19 Norte 0.2 -- -- 86
2019-05-24 16:00:00 15.9 10 Norte 14 Norte 0.4 -- -- 85
2019-05-24 15:00:00 15.2 10 Norte 15 Norte 1.6 -- -- 80
2019-05-24 14:00:00 17.3 4 Sudeste 8 Sur 2 -- -- 71
2019-05-24 13:00:00 19.6 5 Sur 11 Oeste 0.2 -- -- 56
2019-05-24 12:00:00 22.6 6 Sur 13 Oeste 0 -- -- 36
2019-05-24 11:00:00 22.7 11 Oeste 15 Oeste 0 -- -- 40
2019-05-24 10:00:00 20.3 4 Este 17 Este 0 -- -- 45
2019-05-24 09:00:00 18.9 9 Este 14 Este 0 -- -- 57
2019-05-24 08:00:00 17.1 8 Nordeste 14 Nordeste 0 -- -- 67
2019-05-24 07:00:00 15.8 8 Nordeste 13 Norte 0 -- -- 73
2019-05-24 06:00:00 16.5 9 Este 17 Este 0 -- -- 71
2019-05-24 05:00:00 16.3 10 Este 17 Este 0 -- -- 69
2019-05-24 04:00:00 16.3 6 Nordeste 10 Norte 0 -- -- 70
2019-05-24 03:00:00 15.6 6 Nordeste 9 Nordeste 0 -- -- 71
2019-05-24 02:00:00 15.4 5 Nordeste 13 Este 0 -- -- 74
2019-05-24 01:00:00 16.3 9 Este 14 Este 0 -- -- 74
2019-05-24 00:00:00 16.5 8 Este 14 Este 0 -- -- 77
2019-05-23 23:00:00 16.7 8 Nordeste 13 Este 0 -- -- 78
2019-05-23 22:00:00 17.2 7 Este 14 Este 0 -- -- 76
2019-05-23 21:00:00 18 8 Este 12 Este 0 -- -- 72
2019-05-23 20:00:00 19.9 6 Sudeste 15 Sur 0 -- -- 65
2019-05-23 19:00:00 20.4 10 Sudeste 21 Sur 0 -- -- 62
2019-05-23 18:00:00 22.2 13 Sur 24 Sur 0 -- -- 54
2019-05-23 17:00:00 23.6 14 Sur 23 Sur 0 -- -- 40
2019-05-23 16:00:00 23.4 14 Sur 21 Sur 0 -- -- 35
2019-05-23 15:00:00 23.7 13 Sudoeste 26 Sur 0 -- -- 45
2019-05-23 14:00:00 23.6 13 Sur 19 Sudoeste 0 -- -- 38
2019-05-23 13:00:00 23.5 11 Sudoeste 19 Sur 0 -- -- 52
2019-05-23 12:00:00 22.6 12 Sur 23 Sur 0 -- -- 47
2019-05-23 11:00:00 21.6 12 Sur 18 Sur 0 -- -- 57
2019-05-23 10:00:00 22.1 9 Sur 14 Sur 0 -- -- 53
2019-05-23 09:00:00 22.3 6 Sur 10 Sur 0 -- -- 64
2019-05-23 08:00:00 19.2 0 Calma 3 Sur 0 -- -- 92
2019-05-23 07:00:00 15.2 2 Sudoeste 4 Sudoeste 0 -- -- 96
2019-05-23 06:00:00 14.8 0 Calma -- -- 0 -- -- 95
2019-05-23 05:00:00 13.9 4 Nordeste 9 Nordeste 0 -- -- 93
2019-05-23 04:00:00 15.7 4 Sur 6 Sur 0 -- -- 92
2019-05-23 03:00:00 15.1 5 Sur 8 Sur 0 -- -- 91
2019-05-23 02:00:00 15.5 3 Sudeste 5 Sur 0 -- -- 89
2019-05-23 01:00:00 15.5 4 Sudeste 8 Sur 0 -- -- 87
2019-05-23 00:00:00 16.1 6 Sur 8 Sur 0 -- -- 85
2019-05-22 23:00:00 16.7 6 Sur 9 Sur 0 -- -- 83
2019-05-22 22:00:00 17 7 Sudoeste 10 Sudoeste 0 -- -- 76
2019-05-22 21:00:00 18.4 8 Sur 16 Sudoeste 0 -- -- 69
2019-05-22 20:00:00 20.7 10 Sur 15 Sur 0 -- -- 56
2019-05-22 19:00:00 22.4 10 Sudoeste 17 Sur 0 -- -- 50
2019-05-22 18:00:00 22.6 13 Sur 18 Sur 0 -- -- 47
2019-05-22 17:00:00 22.7 14 Sudoeste 23 Sudoeste 0 -- -- 51
2019-05-22 16:00:00 22.4 15 Sur 24 Sur 0 -- -- 49
2019-05-22 15:00:00 22.9 14 Sudoeste 19 Sur 0 -- -- 35
2019-05-22 14:00:00 23.2 11 Sur 17 Sudoeste 0 -- -- 35
2019-05-22 13:00:00 22.5 9 Sur 18 Sur 0 -- -- 34
2019-05-22 12:00:00 24.7 8 Sudoeste 15 Sudoeste 0 -- -- 23
2019-05-22 11:00:00 22.7 8 Oeste 14 Sudoeste 0 -- -- 47
2019-05-22 10:00:00 19.6 8 Oeste 10 Oeste 0 -- -- 84
2019-05-22 09:00:00 16.8 2 Norte 7 Norte 0 -- -- 94
2019-05-22 08:00:00 15.1 4 Norte 8 Norte 0 -- -- 96
2019-05-22 07:00:00 13.9 6 Nordeste 9 Nordeste 0 -- -- 96
2019-05-22 06:00:00 13.3 8 Norte 10 Nordeste 0 -- -- 94
2019-05-22 05:00:00 13.2 8 Norte 13 Nordeste 0 -- -- 93
2019-05-22 04:00:00 13.3 6 Nordeste 9 Norte 0 -- -- 92
2019-05-22 03:00:00 13.8 5 Este 8 Este 0 -- -- 92
2019-05-22 02:00:00 14.2 5 Este 9 Este 0 -- -- 89
2019-05-22 01:00:00 14.5 8 Este 11 Este 0 -- -- 88
2019-05-22 00:00:00 14.8 8 Este 12 Este 0 -- -- 86
2019-05-21 23:00:00 15.4 9 Este 11 Este 0 -- -- 82
2019-05-21 22:00:00 16.2 5 Este 9 Este 0 -- -- 76
2019-05-21 21:00:00 17.6 8 Este 16 Sudeste 0 -- -- 71
2019-05-21 20:00:00 18.3 9 Sudeste 19 Sudeste 0 -- -- 69
2019-05-21 19:00:00 20.5 13 Sudeste 23 Sudeste 0 -- -- 60
2019-05-21 18:00:00 22.4 6 Sudeste 17 Sudeste 0 -- -- 42
2019-05-21 17:00:00 21.7 8 Sudeste 17 Sur 0 -- -- 39
2019-05-21 16:00:00 22 11 Sur 17 Sudeste 0 -- -- 45
2019-05-21 15:00:00 20.2 10 Sudoeste 17 Sudoeste 0 -- -- 63
2019-05-21 14:00:00 19.7 10 Sudoeste 18 Sudoeste 0 -- -- 57
2019-05-21 13:00:00 21.2 13 Sur 24 Sudeste 0 -- -- 49
2019-05-21 12:00:00 21.5 15 Sudeste 22 Sudeste 0 -- -- 40
2019-05-21 11:00:00 21.3 13 Sudeste 23 Sudeste 0 -- -- 38
2019-05-21 10:00:00 23.1 9 Este 21 Nordeste 0 -- -- 34
2019-05-21 09:00:00 20.1 10 Este 16 Este 0 -- -- 46
2019-05-21 08:00:00 17.6 7 Nordeste 13 Nordeste 0 -- -- 63
2019-05-21 07:00:00 13.2 10 Nordeste 13 Este 0 -- -- 73
2019-05-21 06:00:00 13.2 9 Nordeste 13 Nordeste 0 -- -- 72
2019-05-21 05:00:00 12.7 10 Nordeste 14 Nordeste 0 -- -- 72
2019-05-21 04:00:00 12.4 8 Nordeste 11 Nordeste 0 -- -- 77
2019-05-21 03:00:00 12.8 9 Nordeste 12 Este 0 -- -- 82
2019-05-21 02:00:00 13.2 9 Este 12 Este 0 -- -- 83
2019-05-21 01:00:00 13.3 7 Nordeste 10 Nordeste 0 -- -- 82
2019-05-21 00:00:00 13.9 7 Este 10 Este 0 -- -- 81